sensor_id;sensor_type;location;lat;lon;timestamp;P1;durP1;ratioP1;P2;durP2;ratioP2
25525;SDS011;13424;48.424;11.258;2022-09-09T00:02:15;5.30;;;2.60;;
25525;SDS011;13424;48.424;11.258;2022-09-09T00:05:12;2.80;;;2.60;;
25525;SDS011;13424;48.424;11.258;2022-09-09T00:07:52;3.30;;;2.25;;
25525;SDS011;13424;48.424;11.258;2022-09-09T00:10:31;7.03;;;3.05;;
25525;SDS011;13424;48.424;11.258;2022-09-09T00:13:16;6.65;;;2.72;;
25525;SDS011;13424;48.424;11.258;2022-09-09T00:16:08;5.20;;;2.40;;
25525;SDS011;13424;48.424;11.258;2022-09-09T00:19:07;3.33;;;2.72;;
25525;SDS011;13424;48.424;11.258;2022-09-09T00:24:48;11.57;;;2.78;;
25525;SDS011;13424;48.424;11.258;2022-09-09T00:27:40;3.78;;;3.00;;
25525;SDS011;13424;48.424;11.258;2022-09-09T00:30:13;6.85;;;2.55;;
25525;SDS011;13424;48.424;11.258;2022-09-09T00:33:12;3.50;;;2.45;;
25525;SDS011;13424;48.424;11.258;2022-09-09T00:35:49;2.72;;;2.20;;
25525;SDS011;13424;48.424;11.258;2022-09-09T00:38:40;3.00;;;2.60;;
25525;SDS011;13424;48.424;11.258;2022-09-09T00:44:37;3.55;;;2.67;;
25525;SDS011;13424;48.424;11.258;2022-09-09T00:56:27;3.30;;;2.40;;
25525;SDS011;13424;48.424;11.258;2022-09-09T01:06:32;5.10;;;2.90;;
25525;SDS011;13424;48.424;11.258;2022-09-09T01:09:24;4.35;;;2.80;;
25525;SDS011;13424;48.424;11.258;2022-09-09T01:12:15;3.05;;;1.90;;
25525;SDS011;13424;48.424;11.258;2022-09-09T01:15:30;5.15;;;2.00;;
25525;SDS011;13424;48.424;11.258;2022-09-09T01:18:06;5.57;;;2.10;;
25525;SDS011;13424;48.424;11.258;2022-09-09T01:24:01;2.72;;;2.30;;
25525;SDS011;13424;48.424;11.258;2022-09-09T01:27:17;3.58;;;2.17;;
25525;SDS011;13424;48.424;11.258;2022-09-09T01:29:45;4.43;;;2.40;;
25525;SDS011;13424;48.424;11.258;2022-09-09T01:38:27;5.28;;;2.70;;
25525;SDS011;13424;48.424;11.258;2022-09-09T01:40:54;5.28;;;2.63;;
25525;SDS011;13424;48.424;11.258;2022-09-09T01:43:26;3.75;;;2.47;;
25525;SDS011;13424;48.424;11.258;2022-09-09T01:45:55;3.17;;;2.60;;
25525;SDS011;13424;48.424;11.258;2022-09-09T01:48:27;5.00;;;2.67;;
25525;SDS011;13424;48.424;11.258;2022-09-09T01:51:08;6.32;;;2.70;;
25525;SDS011;13424;48.424;11.258;2022-09-09T01:53:36;8.63;;;2.50;;
25525;SDS011;13424;48.424;11.258;2022-09-09T02:02:24;2.70;;;2.50;;
25525;SDS011;13424;48.424;11.258;2022-09-09T02:05:13;3.42;;;2.05;;
25525;SDS011;13424;48.424;11.258;2022-09-09T02:08:07;2.58;;;2.38;;
25525;SDS011;13424;48.424;11.258;2022-09-09T02:21:55;3.10;;;2.20;;
25525;SDS011;13424;48.424;11.258;2022-09-09T02:24:23;3.33;;;2.30;;
25525;SDS011;13424;48.424;11.258;2022-09-09T02:27:04;3.88;;;3.00;;
25525;SDS011;13424;48.424;11.258;2022-09-09T02:29:36;2.67;;;2.20;;
25525;SDS011;13424;48.424;11.258;2022-09-09T02:32:20;4.25;;;2.67;;
25525;SDS011;13424;48.424;11.258;2022-09-09T02:34:55;3.22;;;2.75;;
25525;SDS011;13424;48.424;11.258;2022-09-09T02:37:36;3.67;;;2.28;;
25525;SDS011;13424;48.424;11.258;2022-09-09T02:40:06;6.60;;;2.83;;
25525;SDS011;13424;48.424;11.258;2022-09-09T02:42:44;5.35;;;3.45;;
25525;SDS011;13424;48.424;11.258;2022-09-09T02:45:15;4.13;;;2.50;;
25525;SDS011;13424;48.424;11.258;2022-09-09T02:51:29;4.55;;;2.83;;
25525;SDS011;13424;48.424;11.258;2022-09-09T02:54:13;3.78;;;2.42;;
25525;SDS011;13424;48.424;11.258;2022-09-09T02:56:52;3.53;;;2.65;;
25525;SDS011;13424;48.424;11.258;2022-09-09T02:59:30;3.30;;;3.00;;
25525;SDS011;13424;48.424;11.258;2022-09-09T03:06:10;4.93;;;2.10;;
25525;SDS011;13424;48.424;11.258;2022-09-09T03:08:37;3.63;;;2.42;;
25525;SDS011;13424;48.424;11.258;2022-09-09T03:11:04;4.68;;;2.58;;
25525;SDS011;13424;48.424;11.258;2022-09-09T03:13:33;3.70;;;2.67;;
25525;SDS011;13424;48.424;11.258;2022-09-09T03:15:59;3.65;;;2.80;;
25525;SDS011;13424;48.424;11.258;2022-09-09T03:18:27;3.70;;;3.03;;
25525;SDS011;13424;48.424;11.258;2022-09-09T03:20:54;5.55;;;2.35;;
25525;SDS011;13424;48.424;11.258;2022-09-09T03:23:23;3.45;;;2.58;;
25525;SDS011;13424;48.424;11.258;2022-09-09T03:25:50;3.40;;;2.67;;
25525;SDS011;13424;48.424;11.258;2022-09-09T03:28:21;3.78;;;2.58;;
25525;SDS011;13424;48.424;11.258;2022-09-09T03:30:49;3.05;;;2.28;;
25525;SDS011;13424;48.424;11.258;2022-09-09T03:33:15;3.50;;;2.40;;
25525;SDS011;13424;48.424;11.258;2022-09-09T03:35:46;3.45;;;2.13;;
25525;SDS011;13424;48.424;11.258;2022-09-09T03:38:18;5.82;;;2.47;;
25525;SDS011;13424;48.424;11.258;2022-09-09T03:40:55;4.68;;;2.00;;
25525;SDS011;13424;48.424;11.258;2022-09-09T03:47:17;3.15;;;2.20;;
25525;SDS011;13424;48.424;11.258;2022-09-09T03:49:45;2.50;;;2.13;;
25525;SDS011;13424;48.424;11.258;2022-09-09T03:52:11;3.45;;;2.20;;
25525;SDS011;13424;48.424;11.258;2022-09-09T03:54:37;4.50;;;2.63;;
25525;SDS011;13424;48.424;11.258;2022-09-09T03:57:04;5.60;;;2.42;;
25525;SDS011;13424;48.424;11.258;2022-09-09T03:59:31;4.40;;;2.08;;
25525;SDS011;13424;48.424;11.258;2022-09-09T04:01:57;2.95;;;2.13;;
25525;SDS011;13424;48.424;11.258;2022-09-09T04:04:24;7.00;;;2.67;;
25525;SDS011;13424;48.424;11.258;2022-09-09T04:06:52;4.15;;;2.40;;
25525;SDS011;13424;48.424;11.258;2022-09-09T04:09:19;3.13;;;2.38;;
25525;SDS011;13424;48.424;11.258;2022-09-09T04:11:46;3.97;;;2.38;;
25525;SDS011;13424;48.424;11.258;2022-09-09T04:14:13;3.28;;;2.38;;
25525;SDS011;13424;48.424;11.258;2022-09-09T04:16:39;4.43;;;3.08;;
25525;SDS011;13424;48.424;11.258;2022-09-09T04:19:08;2.55;;;2.30;;
25525;SDS011;13424;48.424;11.258;2022-09-09T04:21:38;4.50;;;2.58;;
25525;SDS011;13424;48.424;11.258;2022-09-09T04:24:20;4.53;;;2.07;;
25525;SDS011;13424;48.424;11.258;2022-09-09T04:26:47;3.03;;;2.30;;
25525;SDS011;13424;48.424;11.258;2022-09-09T04:29:23;4.90;;;2.90;;
25525;SDS011;13424;48.424;11.258;2022-09-09T04:31:50;2.97;;;2.42;;
25525;SDS011;13424;48.424;11.258;2022-09-09T04:34:15;5.78;;;2.80;;
25525;SDS011;13424;48.424;11.258;2022-09-09T04:36:41;2.42;;;2.28;;
25525;SDS011;13424;48.424;11.258;2022-09-09T04:39:08;3.70;;;2.83;;
25525;SDS011;13424;48.424;11.258;2022-09-09T04:41:34;4.22;;;2.70;;
25525;SDS011;13424;48.424;11.258;2022-09-09T04:44:00;2.70;;;2.50;;
25525;SDS011;13424;48.424;11.258;2022-09-09T04:46:26;4.20;;;2.50;;
25525;SDS011;13424;48.424;11.258;2022-09-09T04:48:52;5.60;;;2.47;;
25525;SDS011;13424;48.424;11.258;2022-09-09T04:51:19;3.05;;;2.47;;
25525;SDS011;13424;48.424;11.258;2022-09-09T04:53:48;3.10;;;2.53;;
25525;SDS011;13424;48.424;11.258;2022-09-09T04:56:17;4.25;;;3.28;;
25525;SDS011;13424;48.424;11.258;2022-09-09T04:58:49;5.53;;;2.53;;
25525;SDS011;13424;48.424;11.258;2022-09-09T05:01:18;6.55;;;2.40;;
25525;SDS011;13424;48.424;11.258;2022-09-09T05:03:48;5.63;;;2.65;;
25525;SDS011;13424;48.424;11.258;2022-09-09T05:06:20;2.88;;;2.50;;
25525;SDS011;13424;48.424;11.258;2022-09-09T05:08:49;2.97;;;2.05;;
25525;SDS011;13424;48.424;11.258;2022-09-09T05:11:21;12.65;;;4.97;;
25525;SDS011;13424;48.424;11.258;2022-09-09T05:13:53;19.30;;;11.52;;
25525;SDS011;13424;48.424;11.258;2022-09-09T05:16:20;14.82;;;10.50;;
25525;SDS011;13424;48.424;11.258;2022-09-09T05:18:48;8.13;;;5.15;;
25525;SDS011;13424;48.424;11.258;2022-09-09T05:21:16;4.53;;;2.95;;
25525;SDS011;13424;48.424;11.258;2022-09-09T05:23:45;7.38;;;2.83;;
25525;SDS011;13424;48.424;11.258;2022-09-09T05:26:13;6.10;;;2.10;;
25525;SDS011;13424;48.424;11.258;2022-09-09T05:28:42;4.28;;;2.67;;
25525;SDS011;13424;48.424;11.258;2022-09-09T05:31:09;3.63;;;3.08;;
25525;SDS011;13424;48.424;11.258;2022-09-09T05:33:43;4.63;;;2.33;;
25525;SDS011;13424;48.424;11.258;2022-09-09T05:36:14;3.72;;;2.28;;
25525;SDS011;13424;48.424;11.258;2022-09-09T05:38:48;2.78;;;1.80;;
25525;SDS011;13424;48.424;11.258;2022-09-09T05:41:15;3.97;;;2.10;;
25525;SDS011;13424;48.424;11.258;2022-09-09T05:43:43;2.88;;;2.17;;
25525;SDS011;13424;48.424;11.258;2022-09-09T05:46:17;4.60;;;2.20;;
25525;SDS011;13424;48.424;11.258;2022-09-09T05:52:06;4.80;;;3.20;;
25525;SDS011;13424;48.424;11.258;2022-09-09T05:54:33;3.10;;;2.80;;
25525;SDS011;13424;48.424;11.258;2022-09-09T05:56:59;2.55;;;2.30;;
25525;SDS011;13424;48.424;11.258;2022-09-09T05:59:25;3.40;;;1.67;;
25525;SDS011;13424;48.424;11.258;2022-09-09T06:01:54;2.88;;;2.15;;
25525;SDS011;13424;48.424;11.258;2022-09-09T06:04:26;3.63;;;2.00;;
25525;SDS011;13424;48.424;11.258;2022-09-09T06:10:10;6.30;;;2.00;;
25525;SDS011;13424;48.424;11.258;2022-09-09T06:12:40;4.10;;;2.20;;
25525;SDS011;13424;48.424;11.258;2022-09-09T06:15:06;5.00;;;1.90;;
25525;SDS011;13424;48.424;11.258;2022-09-09T06:17:34;4.07;;;2.22;;
25525;SDS011;13424;48.424;11.258;2022-09-09T06:20:00;7.13;;;3.35;;
25525;SDS011;13424;48.424;11.258;2022-09-09T06:22:29;2.72;;;2.25;;
25525;SDS011;13424;48.424;11.258;2022-09-09T06:24:55;3.63;;;2.22;;
25525;SDS011;13424;48.424;11.258;2022-09-09T06:27:21;4.38;;;2.45;;
25525;SDS011;13424;48.424;11.258;2022-09-09T06:29:47;4.95;;;2.72;;
25525;SDS011;13424;48.424;11.258;2022-09-09T06:32:15;5.50;;;2.85;;
25525;SDS011;13424;48.424;11.258;2022-09-09T06:34:44;3.45;;;2.60;;
25525;SDS011;13424;48.424;11.258;2022-09-09T06:37:10;4.60;;;2.47;;
25525;SDS011;13424;48.424;11.258;2022-09-09T06:39:42;5.32;;;2.40;;
25525;SDS011;13424;48.424;11.258;2022-09-09T06:42:08;4.28;;;2.17;;
25525;SDS011;13424;48.424;11.258;2022-09-09T06:44:56;7.07;;;3.10;;
25525;SDS011;13424;48.424;11.258;2022-09-09T06:47:31;11.90;;;2.83;;
25525;SDS011;13424;48.424;11.258;2022-09-09T06:53:57;7.68;;;3.72;;
25525;SDS011;13424;48.424;11.258;2022-09-09T06:56:32;4.57;;;2.80;;
25525;SDS011;13424;48.424;11.258;2022-09-09T06:59:04;4.45;;;2.80;;
25525;SDS011;13424;48.424;11.258;2022-09-09T07:01:42;3.75;;;3.10;;
25525;SDS011;13424;48.424;11.258;2022-09-09T07:04:16;6.70;;;3.55;;
25525;SDS011;13424;48.424;11.258;2022-09-09T07:06:45;4.82;;;3.17;;
25525;SDS011;13424;48.424;11.258;2022-09-09T07:09:16;4.28;;;3.03;;
25525;SDS011;13424;48.424;11.258;2022-09-09T07:11:47;8.40;;;2.90;;
25525;SDS011;13424;48.424;11.258;2022-09-09T07:14:20;7.45;;;4.43;;
25525;SDS011;13424;48.424;11.258;2022-09-09T07:16:53;3.92;;;3.20;;
25525;SDS011;13424;48.424;11.258;2022-09-09T07:19:19;4.30;;;3.42;;
25525;SDS011;13424;48.424;11.258;2022-09-09T07:21:49;4.10;;;3.17;;
25525;SDS011;13424;48.424;11.258;2022-09-09T07:24:17;4.25;;;3.38;;
25525;SDS011;13424;48.424;11.258;2022-09-09T07:26:44;6.25;;;3.10;;
25525;SDS011;13424;48.424;11.258;2022-09-09T07:29:11;4.03;;;3.40;;
25525;SDS011;13424;48.424;11.258;2022-09-09T07:31:39;9.20;;;4.22;;
25525;SDS011;13424;48.424;11.258;2022-09-09T07:34:11;6.30;;;4.22;;
25525;SDS011;13424;48.424;11.258;2022-09-09T07:36:41;7.53;;;3.60;;
25525;SDS011;13424;48.424;11.258;2022-09-09T07:39:12;6.95;;;4.20;;
25525;SDS011;13424;48.424;11.258;2022-09-09T07:41:46;14.93;;;11.38;;
25525;SDS011;13424;48.424;11.258;2022-09-09T07:44:19;7.40;;;5.05;;
25525;SDS011;13424;48.424;11.258;2022-09-09T07:46:50;7.63;;;4.75;;
25525;SDS011;13424;48.424;11.258;2022-09-09T07:49:20;4.03;;;3.35;;
25525;SDS011;13424;48.424;11.258;2022-09-09T07:51:47;7.43;;;3.03;;
25525;SDS011;13424;48.424;11.258;2022-09-09T07:54:17;6.20;;;3.67;;
25525;SDS011;13424;48.424;11.258;2022-09-09T07:56:50;7.13;;;3.90;;
25525;SDS011;13424;48.424;11.258;2022-09-09T07:59:17;6.28;;;4.10;;
25525;SDS011;13424;48.424;11.258;2022-09-09T08:01:48;12.85;;;4.72;;
25525;SDS011;13424;48.424;11.258;2022-09-09T08:04:22;5.57;;;3.20;;
25525;SDS011;13424;48.424;11.258;2022-09-09T08:06:55;6.53;;;4.60;;
25525;SDS011;13424;48.424;11.258;2022-09-09T08:09:25;7.40;;;4.47;;
25525;SDS011;13424;48.424;11.258;2022-09-09T08:12:16;5.97;;;3.40;;
25525;SDS011;13424;48.424;11.258;2022-09-09T08:14:43;6.95;;;4.32;;
25525;SDS011;13424;48.424;11.258;2022-09-09T08:17:09;5.78;;;4.38;;
25525;SDS011;13424;48.424;11.258;2022-09-09T08:19:36;4.45;;;3.85;;
25525;SDS011;13424;48.424;11.258;2022-09-09T08:22:06;8.35;;;3.85;;
25525;SDS011;13424;48.424;11.258;2022-09-09T08:24:34;6.65;;;4.93;;
25525;SDS011;13424;48.424;11.258;2022-09-09T08:27:01;7.78;;;3.53;;
25525;SDS011;13424;48.424;11.258;2022-09-09T08:29:27;3.85;;;3.08;;
25525;SDS011;13424;48.424;11.258;2022-09-09T08:31:56;7.97;;;3.45;;
25525;SDS011;13424;48.424;11.258;2022-09-09T08:34:26;4.80;;;4.13;;
25525;SDS011;13424;48.424;11.258;2022-09-09T08:36:54;5.50;;;3.70;;
25525;SDS011;13424;48.424;11.258;2022-09-09T08:39:27;8.82;;;4.03;;
25525;SDS011;13424;48.424;11.258;2022-09-09T08:48:23;8.15;;;5.15;;
25525;SDS011;13424;48.424;11.258;2022-09-09T08:50:58;3.95;;;3.22;;
25525;SDS011;13424;48.424;11.258;2022-09-09T08:53:30;6.20;;;3.10;;
25525;SDS011;13424;48.424;11.258;2022-09-09T08:56:21;7.53;;;3.53;;
25525;SDS011;13424;48.424;11.258;2022-09-09T08:58:53;5.25;;;2.80;;
25525;SDS011;13424;48.424;11.258;2022-09-09T09:01:39;4.28;;;2.03;;
25525;SDS011;13424;48.424;11.258;2022-09-09T09:05:19;4.82;;;2.30;;
25525;SDS011;13424;48.424;11.258;2022-09-09T09:08:39;2.80;;;2.60;;
25525;SDS011;13424;48.424;11.258;2022-09-09T09:11:23;3.08;;;2.78;;
25525;SDS011;13424;48.424;11.258;2022-09-09T09:14:02;3.92;;;2.53;;
25525;SDS011;13424;48.424;11.258;2022-09-09T09:16:48;4.32;;;2.80;;
25525;SDS011;13424;48.424;11.258;2022-09-09T09:19:22;5.93;;;2.67;;
25525;SDS011;13424;48.424;11.258;2022-09-09T09:22:06;3.08;;;2.88;;
25525;SDS011;13424;48.424;11.258;2022-09-09T09:24:52;6.40;;;3.15;;
25525;SDS011;13424;48.424;11.258;2022-09-09T09:28:17;4.20;;;2.70;;
25525;SDS011;13424;48.424;11.258;2022-09-09T09:33:50;3.45;;;2.50;;
25525;SDS011;13424;48.424;11.258;2022-09-09T09:36:37;3.75;;;2.25;;
25525;SDS011;13424;48.424;11.258;2022-09-09T09:39:27;4.22;;;2.83;;
25525;SDS011;13424;48.424;11.258;2022-09-09T09:42:12;7.63;;;3.13;;
25525;SDS011;13424;48.424;11.258;2022-09-09T09:44:43;3.05;;;2.75;;
25525;SDS011;13424;48.424;11.258;2022-09-09T09:47:16;10.85;;;2.78;;
25525;SDS011;13424;48.424;11.258;2022-09-09T09:49:59;3.80;;;3.22;;
25525;SDS011;13424;48.424;11.258;2022-09-09T09:52:32;3.95;;;2.80;;
25525;SDS011;13424;48.424;11.258;2022-09-09T09:55:03;4.10;;;2.95;;
25525;SDS011;13424;48.424;11.258;2022-09-09T09:57:37;4.38;;;2.67;;
25525;SDS011;13424;48.424;11.258;2022-09-09T10:00:16;3.60;;;2.70;;
25525;SDS011;13424;48.424;11.258;2022-09-09T10:02:55;5.75;;;3.30;;
25525;SDS011;13424;48.424;11.258;2022-09-09T10:05:26;3.00;;;2.70;;
25525;SDS011;13424;48.424;11.258;2022-09-09T10:08:14;3.05;;;2.17;;
25525;SDS011;13424;48.424;11.258;2022-09-09T10:38:45;5.35;;;1.67;;
25525;SDS011;13424;48.424;11.258;2022-09-09T10:41:18;3.40;;;2.03;;
25525;SDS011;13424;48.424;11.258;2022-09-09T10:53:24;1.92;;;1.83;;
25525;SDS011;13424;48.424;11.258;2022-09-09T10:55:41;4.65;;;1.77;;
25525;SDS011;13424;48.424;11.258;2022-09-09T10:58:18;2.28;;;1.65;;
25525;SDS011;13424;48.424;11.258;2022-09-09T11:01:16;2.40;;;1.48;;
25525;SDS011;13424;48.424;11.258;2022-09-09T11:04:35;4.32;;;1.75;;
25525;SDS011;13424;48.424;11.258;2022-09-09T11:10:44;3.92;;;1.60;;
25525;SDS011;13424;48.424;11.258;2022-09-09T11:16:48;2.60;;;1.33;;
25525;SDS011;13424;48.424;11.258;2022-09-09T11:22:27;5.22;;;1.60;;
25525;SDS011;13424;48.424;11.258;2022-09-09T11:25:15;5.30;;;1.50;;
25525;SDS011;13424;48.424;11.258;2022-09-09T11:31:21;3.97;;;1.70;;
25525;SDS011;13424;48.424;11.258;2022-09-09T11:43:05;3.47;;;1.70;;
25525;SDS011;13424;48.424;11.258;2022-09-09T11:45:41;5.20;;;1.48;;
25525;SDS011;13424;48.424;11.258;2022-09-09T11:48:35;6.18;;;1.75;;
25525;SDS011;13424;48.424;11.258;2022-09-09T11:51:09;4.65;;;2.10;;
25525;SDS011;13424;48.424;11.258;2022-09-09T11:54:02;4.05;;;1.50;;
25525;SDS011;13424;48.424;11.258;2022-09-09T12:04:21;5.63;;;1.80;;
25525;SDS011;13424;48.424;11.258;2022-09-09T12:07:35;7.00;;;1.52;;
25525;SDS011;13424;48.424;11.258;2022-09-09T12:10:35;2.58;;;1.58;;
25525;SDS011;13424;48.424;11.258;2022-09-09T12:13:17;5.47;;;1.45;;
25525;SDS011;13424;48.424;11.258;2022-09-09T12:15:53;3.58;;;1.30;;
25525;SDS011;13424;48.424;11.258;2022-09-09T12:18:40;3.33;;;1.50;;
25525;SDS011;13424;48.424;11.258;2022-09-09T12:21:30;3.55;;;1.20;;
25525;SDS011;13424;48.424;11.258;2022-09-09T12:24:40;2.58;;;1.10;;
25525;SDS011;13424;48.424;11.258;2022-09-09T12:27:42;7.28;;;2.38;;
25525;SDS011;13424;48.424;11.258;2022-09-09T12:30:56;6.38;;;1.80;;
25525;SDS011;13424;48.424;11.258;2022-09-09T12:33:34;3.13;;;1.77;;
25525;SDS011;13424;48.424;11.258;2022-09-09T12:36:13;6.57;;;1.40;;
25525;SDS011;13424;48.424;11.258;2022-09-09T12:38:44;2.95;;;1.25;;
25525;SDS011;13424;48.424;11.258;2022-09-09T12:41:19;3.78;;;1.40;;
25525;SDS011;13424;48.424;11.258;2022-09-09T12:43:48;3.47;;;1.52;;
25525;SDS011;13424;48.424;11.258;2022-09-09T12:46:32;3.08;;;1.25;;
25525;SDS011;13424;48.424;11.258;2022-09-09T12:49:03;6.78;;;1.80;;
25525;SDS011;13424;48.424;11.258;2022-09-09T12:51:31;3.50;;;1.42;;
25525;SDS011;13424;48.424;11.258;2022-09-09T12:53:59;4.40;;;1.30;;
25525;SDS011;13424;48.424;11.258;2022-09-09T12:56:27;8.27;;;1.85;;
25525;SDS011;13424;48.424;11.258;2022-09-09T12:58:58;4.90;;;1.50;;
25525;SDS011;13424;48.424;11.258;2022-09-09T13:01:32;4.50;;;2.05;;
25525;SDS011;13424;48.424;11.258;2022-09-09T13:03:59;6.85;;;1.77;;
25525;SDS011;13424;48.424;11.258;2022-09-09T13:06:30;2.80;;;1.65;;
25525;SDS011;13424;48.424;11.258;2022-09-09T13:08:59;6.88;;;1.70;;
25525;SDS011;13424;48.424;11.258;2022-09-09T13:14:15;4.35;;;1.23;;
25525;SDS011;13424;48.424;11.258;2022-09-09T13:20:06;2.28;;;1.50;;
25525;SDS011;13424;48.424;11.258;2022-09-09T13:22:42;5.28;;;1.35;;
25525;SDS011;13424;48.424;11.258;2022-09-09T13:27:41;5.50;;;1.50;;
25525;SDS011;13424;48.424;11.258;2022-09-09T13:30:31;1.98;;;1.17;;
25525;SDS011;13424;48.424;11.258;2022-09-09T13:35:47;4.13;;;1.65;;
25525;SDS011;13424;48.424;11.258;2022-09-09T13:38:23;8.50;;;1.88;;
25525;SDS011;13424;48.424;11.258;2022-09-09T13:41:07;1.83;;;1.05;;
25525;SDS011;13424;48.424;11.258;2022-09-09T13:43:42;2.72;;;1.35;;
25525;SDS011;13424;48.424;11.258;2022-09-09T13:48:58;3.70;;;1.30;;
25525;SDS011;13424;48.424;11.258;2022-09-09T13:51:51;4.25;;;1.40;;
25525;SDS011;13424;48.424;11.258;2022-09-09T13:54:50;4.25;;;1.60;;
25525;SDS011;13424;48.424;11.258;2022-09-09T13:57:23;4.68;;;1.45;;
25525;SDS011;13424;48.424;11.258;2022-09-09T14:03:48;7.43;;;2.03;;
25525;SDS011;13424;48.424;11.258;2022-09-09T14:06:14;4.30;;;1.40;;
25525;SDS011;13424;48.424;11.258;2022-09-09T14:08:39;3.08;;;1.58;;
25525;SDS011;13424;48.424;11.258;2022-09-09T14:11:07;2.55;;;1.17;;
25525;SDS011;13424;48.424;11.258;2022-09-09T14:13:37;5.55;;;1.50;;
25525;SDS011;13424;48.424;11.258;2022-09-09T14:16:03;2.42;;;1.27;;
25525;SDS011;13424;48.424;11.258;2022-09-09T14:18:29;3.42;;;1.25;;
25525;SDS011;13424;48.424;11.258;2022-09-09T14:25:20;5.25;;;1.83;;
25525;SDS011;13424;48.424;11.258;2022-09-09T14:27:46;5.35;;;1.48;;
25525;SDS011;13424;48.424;11.258;2022-09-09T14:30:12;3.67;;;1.38;;
25525;SDS011;13424;48.424;11.258;2022-09-09T14:32:38;5.43;;;1.90;;
25525;SDS011;13424;48.424;11.258;2022-09-09T14:35:04;6.53;;;1.98;;
25525;SDS011;13424;48.424;11.258;2022-09-09T14:37:30;2.28;;;1.10;;
25525;SDS011;13424;48.424;11.258;2022-09-09T14:39:57;5.75;;;1.65;;
25525;SDS011;13424;48.424;11.258;2022-09-09T14:42:23;9.02;;;2.30;;
25525;SDS011;13424;48.424;11.258;2022-09-09T14:44:49;8.63;;;1.75;;
25525;SDS011;13424;48.424;11.258;2022-09-09T14:47:15;4.78;;;1.10;;
25525;SDS011;13424;48.424;11.258;2022-09-09T14:49:41;5.72;;;2.03;;
25525;SDS011;13424;48.424;11.258;2022-09-09T14:52:07;2.53;;;1.48;;
25525;SDS011;13424;48.424;11.258;2022-09-09T14:54:34;2.25;;;0.80;;
25525;SDS011;13424;48.424;11.258;2022-09-09T14:57:00;3.60;;;0.80;;
25525;SDS011;13424;48.424;11.258;2022-09-09T14:59:26;1.45;;;1.08;;
25525;SDS011;13424;48.424;11.258;2022-09-09T15:01:52;6.93;;;1.40;;
25525;SDS011;13424;48.424;11.258;2022-09-09T15:04:18;2.42;;;1.20;;
25525;SDS011;13424;48.424;11.258;2022-09-09T15:06:44;3.33;;;1.27;;
25525;SDS011;13424;48.424;11.258;2022-09-09T15:13:39;3.92;;;1.08;;
25525;SDS011;13424;48.424;11.258;2022-09-09T15:16:12;3.47;;;1.00;;
25525;SDS011;13424;48.424;11.258;2022-09-09T15:18:43;2.95;;;1.40;;
25525;SDS011;13424;48.424;11.258;2022-09-09T15:21:17;2.58;;;1.15;;
25525;SDS011;13424;48.424;11.258;2022-09-09T15:23:47;2.75;;;1.00;;
25525;SDS011;13424;48.424;11.258;2022-09-09T15:26:14;4.20;;;1.27;;
25525;SDS011;13424;48.424;11.258;2022-09-09T15:28:41;5.10;;;1.15;;
25525;SDS011;13424;48.424;11.258;2022-09-09T15:31:13;1.75;;;1.00;;
25525;SDS011;13424;48.424;11.258;2022-09-09T15:34:09;2.17;;;0.90;;
25525;SDS011;13424;48.424;11.258;2022-09-09T15:36:40;1.40;;;1.30;;
25525;SDS011;13424;48.424;11.258;2022-09-09T15:39:10;2.80;;;1.20;;
25525;SDS011;13424;48.424;11.258;2022-09-09T15:41:45;7.55;;;1.98;;
25525;SDS011;13424;48.424;11.258;2022-09-09T15:44:20;2.80;;;0.95;;
25525;SDS011;13424;48.424;11.258;2022-09-09T15:46:52;2.40;;;1.10;;
25525;SDS011;13424;48.424;11.258;2022-09-09T15:49:20;3.08;;;1.00;;
25525;SDS011;13424;48.424;11.258;2022-09-09T15:52:24;1.25;;;1.05;;
25525;SDS011;13424;48.424;11.258;2022-09-09T15:54:50;2.40;;;1.00;;
25525;SDS011;13424;48.424;11.258;2022-09-09T15:57:16;2.67;;;1.20;;
25525;SDS011;13424;48.424;11.258;2022-09-09T15:59:42;2.70;;;1.10;;
25525;SDS011;13424;48.424;11.258;2022-09-09T16:02:10;2.88;;;1.33;;
25525;SDS011;13424;48.424;11.258;2022-09-09T16:04:36;1.55;;;1.10;;
25525;SDS011;13424;48.424;11.258;2022-09-09T16:07:03;2.20;;;1.08;;
25525;SDS011;13424;48.424;11.258;2022-09-09T16:09:31;5.15;;;0.93;;
25525;SDS011;13424;48.424;11.258;2022-09-09T16:12:02;3.03;;;0.95;;
25525;SDS011;13424;48.424;11.258;2022-09-09T16:14:31;3.60;;;1.33;;
25525;SDS011;13424;48.424;11.258;2022-09-09T16:17:01;3.95;;;2.85;;
25525;SDS011;13424;48.424;11.258;2022-09-09T16:19:29;8.52;;;4.80;;
25525;SDS011;13424;48.424;11.258;2022-09-09T16:25:23;3.65;;;1.63;;
25525;SDS011;13424;48.424;11.258;2022-09-09T16:27:49;2.10;;;1.10;;
25525;SDS011;13424;48.424;11.258;2022-09-09T16:30:15;1.42;;;1.27;;
25525;SDS011;13424;48.424;11.258;2022-09-09T16:32:41;3.67;;;1.20;;
25525;SDS011;13424;48.424;11.258;2022-09-09T16:35:07;2.50;;;1.50;;
25525;SDS011;13424;48.424;11.258;2022-09-09T16:37:33;4.82;;;1.25;;
25525;SDS011;13424;48.424;11.258;2022-09-09T16:39:59;3.70;;;1.20;;
25525;SDS011;13424;48.424;11.258;2022-09-09T16:45:47;2.90;;;1.23;;
25525;SDS011;13424;48.424;11.258;2022-09-09T16:48:13;3.05;;;1.85;;
25525;SDS011;13424;48.424;11.258;2022-09-09T16:50:39;2.83;;;1.20;;
25525;SDS011;13424;48.424;11.258;2022-09-09T16:53:05;2.03;;;1.15;;
25525;SDS011;13424;48.424;11.258;2022-09-09T16:55:38;2.88;;;1.08;;
25525;SDS011;13424;48.424;11.258;2022-09-09T16:58:10;2.92;;;1.20;;
25525;SDS011;13424;48.424;11.258;2022-09-09T17:00:36;1.73;;;1.20;;
25525;SDS011;13424;48.424;11.258;2022-09-09T17:03:12;2.03;;;1.10;;
25525;SDS011;13424;48.424;11.258;2022-09-09T17:05:41;1.88;;;1.13;;
25525;SDS011;13424;48.424;11.258;2022-09-09T17:08:08;5.90;;;1.20;;
25525;SDS011;13424;48.424;11.258;2022-09-09T17:10:40;2.75;;;1.40;;
25525;SDS011;13424;48.424;11.258;2022-09-09T17:13:07;4.38;;;1.10;;
25525;SDS011;13424;48.424;11.258;2022-09-09T17:15:33;2.80;;;1.50;;
25525;SDS011;13424;48.424;11.258;2022-09-09T17:18:11;1.30;;;1.20;;
25525;SDS011;13424;48.424;11.258;2022-09-09T17:20:40;2.50;;;1.25;;
25525;SDS011;13424;48.424;11.258;2022-09-09T17:23:08;2.47;;;1.00;;
25525;SDS011;13424;48.424;11.258;2022-09-09T17:25:39;2.75;;;1.40;;
25525;SDS011;13424;48.424;11.258;2022-09-09T17:28:05;5.57;;;1.30;;
25525;SDS011;13424;48.424;11.258;2022-09-09T17:30:36;2.35;;;1.38;;
25525;SDS011;13424;48.424;11.258;2022-09-09T17:33:03;4.07;;;1.40;;
25525;SDS011;13424;48.424;11.258;2022-09-09T17:35:32;1.63;;;1.27;;
25525;SDS011;13424;48.424;11.258;2022-09-09T17:38:05;3.00;;;1.30;;
25525;SDS011;13424;48.424;11.258;2022-09-09T17:40:31;4.45;;;1.77;;
25525;SDS011;13424;48.424;11.258;2022-09-09T17:46:57;2.70;;;1.33;;
25525;SDS011;13424;48.424;11.258;2022-09-09T17:49:24;4.32;;;1.70;;
25525;SDS011;13424;48.424;11.258;2022-09-09T17:51:50;1.83;;;1.65;;
25525;SDS011;13424;48.424;11.258;2022-09-09T17:54:18;4.68;;;1.40;;
25525;SDS011;13424;48.424;11.258;2022-09-09T17:56:46;1.77;;;1.35;;
25525;SDS011;13424;48.424;11.258;2022-09-09T17:59:34;2.95;;;1.33;;
25525;SDS011;13424;48.424;11.258;2022-09-09T18:02:00;2.60;;;1.52;;
25525;SDS011;13424;48.424;11.258;2022-09-09T18:04:26;2.15;;;1.10;;
25525;SDS011;13424;48.424;11.258;2022-09-09T18:06:52;3.17;;;1.40;;
25525;SDS011;13424;48.424;11.258;2022-09-09T18:09:24;2.35;;;1.50;;
25525;SDS011;13424;48.424;11.258;2022-09-09T18:11:53;2.20;;;1.30;;
25525;SDS011;13424;48.424;11.258;2022-09-09T18:14:23;4.10;;;1.60;;
25525;SDS011;13424;48.424;11.258;2022-09-09T18:16:54;6.55;;;2.58;;
25525;SDS011;13424;48.424;11.258;2022-09-09T18:19:23;2.50;;;1.35;;